Time;durP1;ratioP1;P1;durP2;ratioP2;P2;SDS_P1;SDS_P2;PMS_P1;PMS_P2;Temp;Humidity;BMP_temperature;BMP_pressure;BME280_temperature;BME280_humidity;BME280_pressure;Samples;Min_cycle;Max_cycle;Signal;HPM_P1;HPM_P2
2023/04/02 00:01:28;;;;;;;1.95;1.73;;;8.30;99.90;;;;;;6250974;22;20135;-79
2023/04/02 00:03:59;;;;;;;8.52;2.50;;;8.30;99.90;;;;;;6278679;22;20151;-82
2023/04/02 00:06:24;;;;;;;9.95;1.52;;;8.30;99.90;;;;;;6245383;22;20192;-82
2023/04/02 00:08:53;;;;;;;1.87;1.20;;;8.30;99.90;;;;;;6249391;22;20148;-80
2023/04/02 00:11:37;;;;;;;2.15;1.10;;;8.40;99.90;;;;;;6251850;22;20152;-82
2023/04/02 00:14:05;;;;;;;4.03;1.58;;;8.40;99.90;;;;;;6250888;22;20140;-80
2023/04/02 00:16:31;;;;;;;4.53;3.47;;;8.40;99.90;;;;;;6276468;22;20148;-83
2023/04/02 00:19:02;;;;;;;3.78;3.28;;;8.50;99.90;;;;;;6276847;22;20148;-83
2023/04/02 00:21:32;;;;;;;3.00;1.52;;;8.50;99.90;;;;;;6251593;22;20177;-83
2023/04/02 00:24:07;;;;;;;2.05;0.82;;;8.50;99.90;;;;;;6249866;22;20214;-81
2023/04/02 00:26:39;;;;;;;1.67;0.60;;;8.70;99.90;;;;;;6249809;22;20168;-81
2023/04/02 00:29:06;;;;;;;0.98;0.95;;;8.60;99.90;;;;;;6249570;22;20162;-84
2023/04/02 00:31:33;;;;;;;7.50;1.35;;;8.60;99.90;;;;;;6274969;22;20170;-85
2023/04/02 00:34:01;;;;;;;4.43;1.50;;;8.60;99.90;;;;;;6248256;22;20175;-79
2023/04/02 00:36:32;;;;;;;6.85;4.05;;;8.60;99.90;;;;;;6242882;22;20160;-83
2023/04/02 00:39:06;;;;;;;4.40;3.03;;;8.60;99.90;;;;;;6249911;22;20140;-83
2023/04/02 00:41:37;;;;;;;1.98;0.98;;;8.60;99.90;;;;;;6250674;22;20147;-80
2023/04/02 00:44:04;;;;;;;1.00;0.90;;;8.60;99.90;;;;;;6279599;22;20197;-85
2023/04/02 00:46:45;;;;;;;2.63;1.15;;;8.50;99.90;;;;;;6249915;22;20249;-83
2023/04/02 00:49:19;;;;;;;2.15;1.30;;;8.50;99.90;;;;;;6276797;22;20129;-81
2023/04/02 00:51:52;;;;;;;2.65;0.98;;;8.40;99.90;;;;;;6275686;22;20638;-82
2023/04/02 00:54:20;;;;;;;3.42;1.38;;;8.40;99.90;;;;;;6247829;22;20179;-83
2023/04/02 00:56:49;;;;;;;1.10;0.95;;;8.30;99.90;;;;;;6274447;22;20518;-83
2023/04/02 00:59:28;;;;;;;3.22;1.20;;;8.30;99.90;;;;;;6248235;22;20166;-84
2023/04/02 01:02:17;;;;;;;1.77;1.65;;;8.30;99.90;;;;;;6271254;22;20166;-79
2023/04/02 01:04:53;;;;;;;8.52;1.33;;;8.30;99.90;;;;;;6236017;23;20203;-81
2023/04/02 01:07:29;;;;;;;3.92;1.20;;;8.30;99.90;;;;;;6240838;22;20133;-84
2023/04/02 01:10:19;;;;;;;0.70;0.50;;;8.30;99.90;;;;;;6240941;22;20275;-80
2023/04/02 01:13:01;;;;;;;1.48;1.00;;;8.30;99.90;;;;;;6239307;23;20153;-82
2023/04/02 01:15:39;;;;;;;2.15;1.00;;;8.30;99.90;;;;;;6239306;22;20278;-84
2023/04/02 01:18:25;;;;;;;2.30;0.63;;;8.20;99.90;;;;;;6240903;22;20140;-79
2023/04/02 01:21:05;;;;;;;0.70;0.70;;;8.20;99.90;;;;;;6239322;22;20182;-79
2023/04/02 01:23:35;;;;;;;0.93;0.80;;;8.30;99.90;;;;;;6240711;23;20156;-83
2023/04/02 01:26:10;;;;;;;0.80;0.60;;;8.20;99.90;;;;;;6240364;22;20172;-79
2023/04/02 01:28:55;;;;;;;1.10;0.80;;;8.20;99.90;;;;;;6242144;23;20654;-83
2023/04/02 01:31:22;;;;;;;3.45;1.60;;;8.20;99.90;;;;;;6243741;22;20594;-83
2023/04/02 01:33:47;;;;;;;2.50;1.70;;;8.20;99.90;;;;;;6244718;23;20156;-83
2023/04/02 01:36:25;;;;;;;1.73;1.00;;;8.20;99.90;;;;;;6241066;23;20187;-82
2023/04/02 01:39:09;;;;;;;3.05;1.05;;;8.20;99.90;;;;;;6245219;22;20170;-83
2023/04/02 01:41:46;;;;;;;0.98;0.60;;;8.20;99.90;;;;;;6241162;23;20166;-83
2023/04/02 01:44:22;;;;;;;1.15;0.77;;;8.20;99.90;;;;;;6238748;22;20144;-79
2023/04/02 01:46:48;;;;;;;1.30;1.02;;;8.20;99.90;;;;;;6250499;22;20170;-80
2023/04/02 01:49:19;;;;;;;0.60;0.60;;;8.20;99.90;;;;;;6247926;23;20148;-82
2023/04/02 01:51:51;;;;;;;3.15;0.90;;;8.20;99.90;;;;;;6248184;23;20892;-83
2023/04/02 01:54:18;;;;;;;0.60;0.55;;;8.30;99.90;;;;;;6250379;22;20164;-79
2023/04/02 01:56:45;;;;;;;4.82;0.70;;;8.30;99.90;;;;;;6244005;22;20662;-82
2023/04/02 01:59:13;;;;;;;0.80;0.65;;;8.30;99.90;;;;;;6243162;23;20149;-82
2023/04/02 02:01:47;;;;;;;1.08;0.85;;;8.20;99.90;;;;;;6244997;22;20770;-79
2023/04/02 02:04:15;;;;;;;1.35;1.00;;;8.20;99.90;;;;;;6246838;22;20140;-79
2023/04/02 02:06:41;;;;;;;1.92;1.25;;;8.20;99.90;;;;;;6276223;22;20800;-81
2023/04/02 02:09:11;;;;;;;1.20;0.85;;;8.10;99.90;;;;;;6275769;22;20144;-80
2023/04/02 02:11:37;;;;;;;1.20;0.90;;;8.10;99.90;;;;;;6247185;22;20136;-82
2023/04/02 02:14:25;;;;;;;1.48;1.08;;;8.20;99.90;;;;;;6248730;22;20152;-82
2023/04/02 02:16:55;;;;;;;1.58;1.25;;;8.10;99.90;;;;;;6252616;22;20171;-84
2023/04/02 02:19:31;;;;;;;3.30;1.17;;;8.10;99.90;;;;;;6277715;22;20128;-83
2023/04/02 02:22:06;;;;;;;1.27;1.00;;;8.10;99.90;;;;;;6278232;22;20146;-82
2023/04/02 02:24:34;;;;;;;4.63;0.70;;;8.10;99.90;;;;;;6248870;22;20183;-82
2023/04/02 02:27:21;;;;;;;1.75;0.65;;;8.20;99.90;;;;;;6245989;22;20241;-82
2023/04/02 02:29:55;;;;;;;1.00;0.68;;;8.20;99.90;;;;;;6274094;22;20144;-81
2023/04/02 02:32:25;;;;;;;2.40;0.77;;;8.10;99.90;;;;;;6248495;22;20611;-81
2023/04/02 02:35:06;;;;;;;0.60;0.52;;;8.20;99.90;;;;;;6248648;22;20194;-83
2023/04/02 02:37:38;;;;;;;1.67;1.10;;;8.10;99.90;;;;;;6247727;22;20617;-83
2023/04/02 02:40:10;;;;;;;1.55;1.02;;;8.20;99.90;;;;;;6275656;22;20167;-80
2023/04/02 02:42:41;;;;;;;1.00;0.70;;;8.10;99.90;;;;;;6248723;22;20171;-80
2023/04/02 02:45:13;;;;;;;3.25;1.00;;;8.10;99.90;;;;;;6249307;22;20184;-82
2023/04/02 02:47:42;;;;;;;4.07;0.80;;;8.20;99.90;;;;;;6277427;22;20142;-83
2023/04/02 02:50:25;;;;;;;2.88;1.00;;;8.10;99.90;;;;;;6248848;22;20182;-82
2023/04/02 02:52:53;;;;;;;0.65;0.60;;;8.20;99.90;;;;;;6275507;22;20128;-82
2023/04/02 02:55:30;;;;;;;1.50;0.60;;;8.20;99.90;;;;;;6249160;22;20176;-83
2023/04/02 02:58:08;;;;;;;1.17;0.70;;;8.20;99.90;;;;;;6240856;22;20752;-84
2023/04/02 03:00:36;;;;;;;8.10;1.23;;;8.30;99.90;;;;;;6246433;22;20140;-83
2023/04/02 03:03:07;;;;;;;3.13;2.45;;;8.20;99.90;;;;;;6278800;22;20206;-79
2023/04/02 03:05:34;;;;;;;4.20;3.60;;;8.20;99.90;;;;;;6248245;23;20202;-81
2023/04/02 03:08:02;;;;;;;5.47;4.97;;;8.10;99.90;;;;;;6248290;22;20140;-80
2023/04/02 03:11:01;;;;;;;1.70;1.20;;;8.10;99.90;;;;;;6246195;23;20524;-81
2023/04/02 03:13:34;;;;;;;5.20;4.70;;;8.10;99.90;;;;;;6241765;23;20187;-85
2023/04/02 03:16:11;;;;;;;2.95;1.70;;;8.10;99.90;;;;;;6240845;22;20165;-85
2023/04/02 03:19:16;;;;;;;1.38;1.10;;;8.00;99.90;;;;;;6240997;22;20137;-84
2023/04/02 03:21:52;;;;;;;1.27;1.17;;;8.10;99.90;;;;;;6246679;22;20199;-85
2023/04/02 03:24:31;;;;;;;4.05;1.65;;;8.00;99.90;;;;;;6246031;22;20155;-83
2023/04/02 03:27:17;;;;;;;1.23;0.88;;;8.00;99.90;;;;;;6244851;23;20203;-81
2023/04/02 03:30:10;;;;;;;10.07;2.30;;;8.00;99.90;;;;;;6246168;22;20133;-83
2023/04/02 03:32:39;;;;;;;5.78;2.63;;;8.00;99.90;;;;;;6245125;22;20155;-81
2023/04/02 03:35:27;;;;;;;2.97;2.58;;;8.10;99.90;;;;;;6245545;22;20169;-85
2023/04/02 03:38:00;;;;;;;3.22;1.40;;;8.00;99.90;;;;;;6242325;23;20159;-85
2023/04/02 03:40:42;;;;;;;2.25;0.95;;;8.10;99.90;;;;;;6244869;23;20223;-84
2023/04/02 03:43:24;;;;;;;2.03;1.00;;;8.10;99.90;;;;;;6244149;23;20372;-82
2023/04/02 03:46:12;;;;;;;1.25;0.60;;;8.00;99.90;;;;;;6240679;23;20197;-80
2023/04/02 03:48:42;;;;;;;2.35;0.80;;;8.00;99.90;;;;;;6245926;22;20140;-83
2023/04/02 03:51:23;;;;;;;0.90;0.80;;;8.00;99.90;;;;;;6246324;23;20145;-82
2023/04/02 03:53:49;;;;;;;1.00;0.70;;;8.10;99.90;;;;;;6245262;22;20144;-81
2023/04/02 03:56:26;;;;;;;1.50;0.97;;;8.10;99.90;;;;;;6245620;23;20183;-81
2023/04/02 03:59:09;;;;;;;0.80;0.60;;;8.10;99.90;;;;;;6245206;22;20128;-83
2023/04/02 04:01:42;;;;;;;1.10;0.82;;;8.20;99.90;;;;;;6242861;22;20171;-82
2023/04/02 04:04:15;;;;;;;2.83;0.90;;;8.20;99.90;;;;;;6245428;22;20136;-83
2023/04/02 04:06:43;;;;;;;2.60;0.85;;;8.20;99.90;;;;;;6275106;22;20167;-83
2023/04/02 04:09:34;;;;;;;4.50;2.63;;;8.20;99.90;;;;;;6248234;22;20148;-82
2023/04/02 04:12:26;;;;;;;2.25;1.13;;;8.20;99.90;;;;;;6248386;22;20611;-82
2023/04/02 04:15:00;;;;;;;0.60;0.60;;;8.20;99.90;;;;;;6245809;22;20175;-83
2023/04/02 04:17:37;;;;;;;0.85;0.82;;;8.20;99.90;;;;;;6246473;22;20148;-84
2023/04/02 04:20:13;;;;;;;1.70;0.60;;;8.10;99.90;;;;;;6248219;22;20148;-82
2023/04/02 04:22:39;;;;;;;0.80;0.80;;;8.10;99.90;;;;;;6277191;22;20189;-81
2023/04/02 04:25:16;;;;;;;1.52;1.42;;;8.10;99.90;;;;;;6248536;22;20207;-81
2023/04/02 04:28:07;;;;;;;2.35;0.88;;;8.10;99.90;;;;;;6274378;22;20160;-84
2023/04/02 04:30:45;;;;;;;1.48;0.88;;;8.00;99.90;;;;;;6275429;22;20129;-85
2023/04/02 04:33:21;;;;;;;1.00;0.70;;;7.90;99.90;;;;;;6275066;22;20139;-82
2023/04/02 04:35:57;;;;;;;1.02;0.95;;;8.00;99.90;;;;;;6277121;22;20225;-82
2023/04/02 04:38:31;;;;;;;1.10;1.00;;;8.00;99.90;;;;;;6248536;22;20538;-86
2023/04/02 04:41:14;;;;;;;1.15;0.60;;;8.00;99.90;;;;;;6248824;22;20155;-84
2023/04/02 04:43:51;;;;;;;2.20;1.17;;;8.00;99.90;;;;;;6250710;22;20543;-81
2023/04/02 04:46:41;;;;;;;2.17;0.80;;;8.00;99.90;;;;;;6249211;22;20180;-80
2023/04/02 04:49:26;;;;;;;1.58;1.35;;;8.00;99.90;;;;;;6276103;22;20590;-81
2023/04/02 04:51:59;;;;;;;1.20;0.95;;;8.00;99.90;;;;;;6250760;22;20162;-83
2023/04/02 04:54:26;;;;;;;0.93;0.70;;;8.00;99.90;;;;;;6248574;22;20267;-80
2023/04/02 04:56:58;;;;;;;2.25;1.25;;;8.00;99.90;;;;;;6274801;22;20155;-80
2023/04/02 04:59:41;;;;;;;2.15;1.33;;;8.00;99.90;;;;;;6275537;22;20442;-80
2023/04/02 05:02:14;;;;;;;5.55;1.13;;;8.10;99.90;;;;;;6274891;22;20132;-83
2023/04/02 05:04:44;;;;;;;2.58;1.08;;;8.10;99.90;;;;;;6236657;22;20209;-86
2023/04/02 05:07:35;;;;;;;1.75;1.20;;;8.10;99.90;;;;;;6246065;23;20234;-86
2023/04/02 05:10:13;;;;;;;1.85;0.90;;;8.10;99.90;;;;;;6245699;23;20160;-87
2023/04/02 05:13:02;;;;;;;1.50;1.40;;;8.10;99.90;;;;;;6226247;22;20177;-87
2023/04/02 05:15:49;;;;;;;2.38;1.25;;;8.20;99.90;;;;;;6273951;22;20120;-85
2023/04/02 05:18:32;;;;;;;1.40;0.70;;;8.10;99.90;;;;;;6267758;22;20136;-86
2023/04/02 05:21:24;;;;;;;1.25;1.10;;;8.00;99.90;;;;;;6252309;22;20140;-87
2023/04/02 05:24:12;;;;;;;1.85;0.98;;;8.10;99.90;;;;;;6247834;22;20172;-87
2023/04/02 05:26:46;;;;;;;1.13;1.02;;;8.00;99.90;;;;;;6277987;22;20554;-85
2023/04/02 05:29:15;;;;;;;4.57;1.00;;;8.10;99.90;;;;;;6246591;22;20136;-88
2023/04/02 05:31:53;;;;;;;1.15;0.88;;;8.10;99.90;;;;;;6250077;22;20174;-86
2023/04/02 05:34:26;;;;;;;1.25;1.00;;;8.10;99.90;;;;;;6277574;22;20132;-85
2023/04/02 05:36:53;;;;;;;3.03;0.93;;;8.20;99.90;;;;;;6243283;22;20159;-88
2023/04/02 05:39:23;;;;;;;1.98;0.90;;;8.20;99.90;;;;;;6242013;22;20186;-90
2023/04/02 05:42:03;;;;;;;6.43;5.38;;;8.30;99.90;;;;;;6243290;22;20144;-86
2023/04/02 05:44:33;;;;;;;1.48;1.30;;;8.30;99.90;;;;;;6243428;22;20179;-88
2023/04/02 05:47:05;;;;;;;2.85;1.35;;;8.40;99.90;;;;;;6251582;22;20584;-87
2023/04/02 05:49:40;;;;;;;2.92;1.10;;;8.20;99.90;;;;;;6274262;22;20128;-87
2023/04/02 05:52:15;;;;;;;4.45;3.78;;;8.30;99.90;;;;;;6249257;22;20146;-87
2023/04/02 05:54:57;;;;;;;9.68;1.40;;;8.40;99.90;;;;;;6248564;22;20143;-88
2023/04/02 05:57:33;;;;;;;1.20;1.10;;;8.30;99.90;;;;;;6275547;22;20143;-88
2023/04/02 06:00:05;;;;;;;0.85;0.80;;;8.20;99.90;;;;;;6273832;22;20159;-86
2023/04/02 06:02:52;;;;;;;3.72;0.60;;;8.30;99.90;;;;;;6244705;22;20183;-88
2023/04/02 06:05:25;;;;;;;0.98;0.68;;;8.40;99.90;;;;;;6239986;23;20188;-86
2023/04/02 06:08:09;;;;;;;0.70;0.70;;;8.20;99.90;;;;;;6258591;23;20133;-84
2023/04/02 06:10:45;;;;;;;0.70;0.70;;;8.20;99.90;;;;;;6266843;22;20151;-84
2023/04/02 06:13:16;;;;;;;2.83;0.85;;;8.20;99.90;;;;;;6268666;22;20160;-84
2023/04/02 06:15:42;;;;;;;6.88;0.90;;;8.20;99.90;;;;;;6267567;22;20136;-84
2023/04/02 06:18:13;;;;;;;1.40;1.10;;;8.30;99.90;;;;;;6260530;22;20168;-85
2023/04/02 06:20:38;;;;;;;1.23;0.95;;;8.40;99.90;;;;;;6245898;23;20230;-85
2023/04/02 06:23:16;;;;;;;1.23;0.93;;;8.50;99.90;;;;;;6244482;23;20675;-87
2023/04/02 06:25:45;;;;;;;1.45;0.77;;;8.50;99.90;;;;;;6249432;22;20161;-88
2023/04/02 06:28:19;;;;;;;1.95;1.25;;;8.60;99.90;;;;;;6249353;23;20179;-88
2023/04/02 06:30:46;;;;;;;2.50;1.15;;;8.60;99.90;;;;;;6248595;23;20136;-86
2023/04/02 06:33:12;;;;;;;1.13;0.85;;;8.60;99.90;;;;;;6243253;23;20176;-86
2023/04/02 06:35:41;;;;;;;1.52;1.20;;;8.60;99.90;;;;;;6245927;22;20144;-87
2023/04/02 06:38:17;;;;;;;0.95;0.85;;;8.60;99.90;;;;;;6246929;23;20295;-85
2023/04/02 06:40:45;;;;;;;1.90;1.10;;;8.60;99.90;;;;;;6263249;22;20200;-86
2023/04/02 06:43:25;;;;;;;16.33;4.90;;;8.70;99.90;;;;;;6247583;23;20168;-87
2023/04/02 06:45:53;;;;;;;1.40;1.20;;;10.00;99.90;;;;;;6249107;22;20498;-86
2023/04/02 06:48:20;;;;;;;1.60;1.15;;;8.70;99.90;;;;;;6248977;22;20156;-87
2023/04/02 06:51:00;;;;;;;2.28;1.25;;;8.80;99.90;;;;;;6249557;22;20145;-88
2023/04/02 06:53:39;;;;;;;3.15;1.27;;;8.90;99.90;;;;;;6244955;23;20172;-87
2023/04/02 06:56:21;;;;;;;2.47;1.40;;;9.00;99.90;;;;;;6247560;22;20147;-86
2023/04/02 06:58:47;;;;;;;1.88;1.42;;;9.00;99.90;;;;;;6247277;23;20140;-87
2023/04/02 07:01:28;;;;;;;1.57;1.20;;;9.00;99.90;;;;;;6245735;23;20646;-87
2023/04/02 07:03:55;;;;;;;1.40;1.27;;;8.90;99.90;;;;;;6249042;23;20183;-87
2023/04/02 07:06:21;;;;;;;1.10;0.90;;;8.90;99.90;;;;;;6245619;23;20190;-86
2023/04/02 07:08:47;;;;;;;0.77;0.60;;;9.00;99.90;;;;;;6246650;22;20441;-88
2023/04/02 07:11:18;;;;;;;0.97;0.87;;;9.00;99.90;;;;;;6247902;23;21004;-87
2023/04/02 07:13:44;;;;;;;2.45;0.90;;;8.80;99.90;;;;;;6249463;22;20391;-87
2023/04/02 07:16:31;;;;;;;6.83;6.23;;;8.70;99.90;;;;;;6241900;23;20156;-87
2023/04/02 07:19:01;;;;;;;1.77;1.67;;;10.20;99.90;;;;;;6242339;22;20367;-87
2023/04/02 07:21:27;;;;;;;3.65;1.77;;;8.80;99.90;;;;;;6244661;23;20615;-87
2023/04/02 07:23:53;;;;;;;2.17;0.70;;;8.70;99.90;;;;;;6244528;23;20218;-87
2023/04/02 07:26:22;;;;;;;0.98;0.60;;;8.60;99.90;;;;;;6242160;23;20179;-85
2023/04/02 07:28:49;;;;;;;1.95;0.77;;;8.70;99.90;;;;;;6241912;23;20186;-88
2023/04/02 07:31:18;;;;;;;3.95;1.35;;;8.90;99.90;;;;;;6243002;23;20129;-86
2023/04/02 07:33:45;;;;;;;2.30;2.10;;;9.00;99.90;;;;;;6247103;22;20165;-87
2023/04/02 07:36:20;;;;;;;1.23;1.13;;;9.10;99.90;;;;;;6244746;23;20354;-86
2023/04/02 07:38:45;;;;;;;2.10;0.65;;;9.10;99.90;;;;;;6249938;22;20137;-86
2023/04/02 07:41:12;;;;;;;0.70;0.60;;;;;;;;;;6251226;23;20128;-88
2023/04/02 07:43:38;;;;;;;0.50;0.40;;;9.60;99.90;;;;;;6268834;22;20156;-87
2023/04/02 07:46:05;;;;;;;0.75;0.68;;;9.70;99.90;;;;;;6261701;22;20169;-87
2023/04/02 07:48:31;;;;;;;0.57;0.57;;;;;;;;;;6248370;23;20164;-88
2023/04/02 07:50:57;;;;;;;2.70;0.63;;;;;;;;;;6248631;23;20153;-86
2023/04/02 07:53:33;;;;;;;1.05;0.50;;;9.70;99.90;;;;;;6244491;23;20387;-87
2023/04/02 07:56:00;;;;;;;1.30;0.60;;;9.70;99.90;;;;;;6246207;22;20136;-87
2023/04/02 07:58:27;;;;;;;0.75;0.50;;;9.60;99.90;;;;;;6243873;23;20153;-86
2023/04/02 08:00:53;;;;;;;1.10;0.65;;;9.70;99.90;;;;;;6244136;22;20160;-87
2023/04/02 08:03:18;;;;;;;3.57;0.90;;;9.60;99.90;;;;;;6260376;23;20160;-86
2023/04/02 08:05:52;;;;;;;0.70;0.50;;;9.60;99.90;;;;;;6267366;22;20187;-86
2023/04/02 08:08:19;;;;;;;0.57;0.40;;;9.50;99.90;;;;;;6273452;22;20144;-86
2023/04/02 08:10:44;;;;;;;0.80;0.40;;;9.60;99.90;;;;;;6244003;22;20785;-87
2023/04/02 08:13:10;;;;;;;1.53;0.90;;;;;;;;;;6243407;22;20168;-87
2023/04/02 08:15:36;;;;;;;1.25;0.70;;;;;;;;;;6271321;22;20226;-87
2023/04/02 08:18:03;;;;;;;0.67;0.63;;;;;;;;;;6271040;22;20152;-87
2023/04/02 08:20:28;;;;;;;1.20;0.90;;;;;;;;;;6274126;22;20447;-87
2023/04/02 08:22:55;;;;;;;1.67;1.33;;;;;;;;;;6240685;22;20196;-87
2023/04/02 08:25:21;;;;;;;1.30;1.00;;;;;;;;;;6241795;22;20756;-87
2023/04/02 08:27:47;;;;;;;1.50;1.13;;;;;;;;;;6242205;22;20152;-88
2023/04/02 08:30:15;;;;;;;1.30;1.20;;;10.00;99.90;;;;;;6240845;22;20448;-87
2023/04/02 08:32:41;;;;;;;1.83;1.20;;;;;;;;;;6272175;22;20255;-88
2023/04/02 08:35:09;;;;;;;1.10;0.90;;;10.30;99.90;;;;;;6260081;22;20171;-87
2023/04/02 08:37:35;;;;;;;1.67;1.23;;;10.50;99.90;;;;;;6267792;22;20377;-87
2023/04/02 08:40:02;;;;;;;1.80;1.27;;;;;;;;;;6282388;22;20196;-87
2023/04/02 08:42:39;;;;;;;1.20;1.10;;;10.80;99.90;;;;;;6250432;22;20402;-85
2023/04/02 08:45:20;;;;;;;1.25;1.05;;;10.70;99.90;;;;;;6253469;22;20143;-86
2023/04/02 08:47:50;;;;;;;1.85;1.10;;;10.70;99.90;;;;;;6261358;22;20124;-88
2023/04/02 08:50:39;;;;;;;1.00;0.90;;;11.00;99.90;;;;;;6272943;22;20401;-86
2023/04/02 08:53:12;;;;;;;1.92;1.35;;;11.00;99.90;;;;;;6267100;22;20174;-86
2023/04/02 08:55:48;;;;;;;1.95;1.20;;;11.50;99.90;;;;;;6282752;22;20136;-88
2023/04/02 08:58:41;;;;;;;0.98;0.80;;;12.70;99.90;;;;;;6281578;22;20174;-88
2023/04/02 09:01:26;;;;;;;3.33;0.95;;;12.20;99.90;;;;;;6254672;22;20140;-87
2023/04/02 09:03:56;;;;;;;0.95;0.77;;;12.40;99.90;;;;;;6279792;22;20179;-87
2023/04/02 09:06:22;;;;;;;0.65;0.65;;;;;;;;;;6245424;23;20215;-87
2023/04/02 09:08:50;;;;;;;1.02;0.80;;;11.90;99.90;;;;;;6243867;23;20156;-87
2023/04/02 09:11:31;;;;;;;2.35;0.98;;;11.50;99.90;;;;;;6246226;22;20149;-86
2023/04/02 09:14:01;;;;;;;1.17;1.08;;;11.50;99.90;;;;;;6261086;23;20156;-87
2023/04/02 09:16:57;;;;;;;0.90;0.55;;;11.70;99.90;;;;;;6257887;22;20157;-87
2023/04/02 09:19:31;;;;;;;1.35;1.10;;;11.70;99.90;;;;;;6244250;23;20252;-87
2023/04/02 09:22:33;;;;;;;1.10;1.00;;;12.00;99.90;;;;;;6240285;23;20148;-88
2023/04/02 09:25:03;;;;;;;0.50;0.50;;;12.20;99.90;;;;;;6117542;23;20199;-88
2023/04/02 09:27:34;;;;;;;0.68;0.63;;;12.20;99.90;;;;;;6224822;22;20219;-87
2023/04/02 09:30:31;;;;;;;0.73;0.43;;;11.70;99.90;;;;;;6262514;22;20133;-87
2023/04/02 09:33:07;;;;;;;1.15;0.93;;;11.70;99.90;;;;;;6237511;23;20173;-87
2023/04/02 09:35:54;;;;;;;1.23;0.57;;;11.60;99.90;;;;;;6241229;22;20129;-87
2023/04/02 09:38:26;;;;;;;0.77;0.60;;;11.50;99.90;;;;;;6246097;22;20137;-87
2023/04/02 09:41:04;;;;;;;1.45;1.02;;;11.50;99.90;;;;;;6242838;23;20145;-87
2023/04/02 09:43:33;;;;;;;0.98;0.57;;;11.10;99.90;;;;;;6239641;23;20671;-87
2023/04/02 09:46:19;;;;;;;0.82;0.70;;;10.80;99.90;;;;;;6236164;23;20179;-88
2023/04/02 09:48:54;;;;;;;1.75;0.70;;;11.10;99.90;;;;;;6236890;23;20137;-87
2023/04/02 09:51:24;;;;;;;1.30;0.80;;;11.40;99.90;;;;;;6248825;23;20151;-88
2023/04/02 09:54:02;;;;;;;0.90;0.80;;;11.90;99.90;;;;;;6250393;23;20230;-87
2023/04/02 09:56:30;;;;;;;2.22;0.90;;;11.90;99.90;;;;;;6243095;23;20766;-88
2023/04/02 09:59:12;;;;;;;1.48;0.85;;;11.80;99.90;;;;;;6241380;23;20156;-86
2023/04/02 10:01:55;;;;;;;1.17;0.60;;;11.90;99.90;;;;;;6239954;22;20211;-87
2023/04/02 10:04:36;;;;;;;1.45;1.00;;;11.80;99.90;;;;;;6238686;23;20572;-87
2023/04/02 10:07:02;;;;;;;1.30;1.20;;;11.70;99.90;;;;;;6239498;23;20245;-87
2023/04/02 10:09:31;;;;;;;0.70;0.70;;;12.10;99.90;;;;;;6235322;23;20508;-87
2023/04/02 10:11:58;;;;;;;1.50;0.82;;;12.20;99.90;;;;;;6240320;22;20364;-87
2023/04/02 10:14:32;;;;;;;0.85;0.75;;;12.30;99.90;;;;;;6241499;22;20144;-87
2023/04/02 10:17:17;;;;;;;3.80;1.58;;;12.30;99.90;;;;;;6236360;23;20159;-87
2023/04/02 10:19:50;;;;;;;1.00;0.90;;;12.60;99.90;;;;;;6240971;22;20583;-87
2023/04/02 10:22:18;;;;;;;2.33;0.93;;;13.20;99.90;;;;;;6238501;23;20665;-88
2023/04/02 10:24:45;;;;;;;0.90;0.80;;;;;;;;;;6240138;23;20403;-87
2023/04/02 10:27:28;;;;;;;1.40;1.00;;;13.70;99.90;;;;;;6240561;23;20449;-86
2023/04/02 10:30:15;;;;;;;3.07;1.50;;;13.70;99.90;;;;;;6240010;23;20379;-87
2023/04/02 10:32:48;;;;;;;18.23;5.37;;;13.70;99.90;;;;;;6238611;23;20414;-87
2023/04/02 10:35:26;;;;;;;107.57;61.33;;;13.10;99.90;;;;;;6238253;23;20379;-87
2023/04/02 10:38:30;;;;;;;67.95;25.90;;;12.80;99.90;;;;;;6239398;23;20413;-87
2023/04/02 10:41:17;;;;;;;1.20;1.10;;;12.70;99.90;;;;;;6243068;23;20649;-86
2023/04/02 10:44:13;;;;;;;39.97;16.85;;;12.30;99.90;;;;;;6256223;23;20235;-86
2023/04/02 10:47:03;;;;;;;5.33;2.90;;;12.30;99.90;;;;;;6256736;22;20176;-87
2023/04/02 10:49:53;;;;;;;1.67;1.05;;;12.20;99.90;;;;;;6245555;23;20376;-87
2023/04/02 10:52:42;;;;;;;2.25;0.77;;;11.70;99.90;;;;;;6244274;23;20198;-86
2023/04/02 10:55:19;;;;;;;1.25;0.85;;;11.80;99.90;;;;;;6242064;23;20137;-85
2023/04/02 10:57:46;;;;;;;1.23;1.00;;;11.80;99.90;;;;;;6259856;22;20140;-87
2023/04/02 11:00:15;;;;;;;0.70;0.70;;;;;;;;;;6250435;23;20156;-89
2023/04/02 11:02:53;;;;;;;1.80;1.65;;;11.90;99.90;;;;;;6240706;23;20727;-88
2023/04/02 11:05:28;;;;;;;2.28;1.88;;;12.10;99.90;;;;;;6242662;23;20164;-86
2023/04/02 11:08:13;;;;;;;0.60;0.50;;;12.20;99.90;;;;;;6242272;23;20152;-87
2023/04/02 11:10:45;;;;;;;1.67;1.00;;;13.00;99.90;;;;;;6245173;22;20140;-86
2023/04/02 11:13:29;;;;;;;2.10;1.07;;;13.00;99.90;;;;;;6246859;22;20790;-87
2023/04/02 11:15:55;;;;;;;0.80;0.70;;;;;;;;;;6244208;23;21150;-86
2023/04/02 11:18:28;;;;;;;1.13;0.97;;;13.90;99.90;;;;;;6243204;23;20384;-86
2023/04/02 11:20:55;;;;;;;0.80;0.80;;;;;;;;;;6240564;23;20383;-86
2023/04/02 11:23:21;;;;;;;1.10;0.93;;;14.50;99.90;;;;;;6242752;22;20394;-88
2023/04/02 11:25:47;;;;;;;2.63;1.20;;;14.90;99.90;;;;;;6238839;23;21031;-87
2023/04/02 11:28:27;;;;;;;2.67;1.20;;;14.20;99.90;;;;;;6255324;22;20356;-88
2023/04/02 11:30:54;;;;;;;0.83;0.83;;;14.90;99.90;;;;;;6254814;22;20411;-87
2023/04/02 11:33:34;;;;;;;2.20;1.40;;;14.90;99.90;;;;;;6250099;23;20398;-88
2023/04/02 11:36:01;;;;;;;5.20;2.90;;;14.90;99.90;;;;;;6250138;23;20972;-86
2023/04/02 11:38:26;;;;;;;4.27;1.77;;;;;;;;;;6248582;22;20359;-85
2023/04/02 11:40:54;;;;;;;0.83;0.83;;;15.70;99.90;;;;;;6244381;23;20368;-87
2023/04/02 11:43:32;;;;;;;7.67;4.27;;;16.20;99.90;;;;;;6246541;22;20400;-86
2023/04/02 11:46:29;;;;;;;0.70;0.57;;;16.00;99.90;;;;;;6246814;23;20404;-86
2023/04/02 11:51:36;;;;;;;1.13;1.00;;;;;;;;;;6284257;22;20427;-83
2023/04/02 11:54:03;;;;;;;2.73;1.10;;;17.60;99.90;;;;;;6284174;22;20698;-86
2023/04/02 11:56:38;;;;;;;2.97;1.17;;;17.60;99.90;;;;;;6285807;22;20365;-86
2023/04/02 11:59:37;;;;;;;1.23;1.13;;;17.10;99.90;;;;;;6262223;22;20915;-86
2023/04/02 12:02:26;;;;;;;1.27;1.00;;;16.80;99.90;;;;;;6274943;22;20459;-83
2023/04/02 12:05:08;;;;;;;1.23;1.10;;;16.80;99.90;;;;;;6247699;23;20406;-84
2023/04/02 12:08:11;;;;;;;1.63;1.10;;;16.80;99.90;;;;;;6214882;23;20804;-83
2023/04/02 12:10:56;;;;;;;1.10;1.00;;;16.80;99.90;;;;;;6231794;23;20416;-81
2023/04/02 12:13:40;;;;;;;1.30;1.13;;;16.10;99.90;;;;;;6266365;22;20444;-81
2023/04/02 12:16:10;;;;;;;0.60;0.60;;;14.70;99.90;;;;;;6271322;22;20350;-82
2023/04/02 12:18:53;;;;;;;0.90;0.90;;;13.30;99.90;;;;;;6249379;22;20377;-83
2023/04/02 12:21:24;;;;;;;1.25;0.80;;;12.10;99.90;;;;;;6274378;22;20343;-84
2023/04/02 12:23:53;;;;;;;0.73;0.70;;;11.90;99.90;;;;;;6246530;22;20140;-82
2023/04/02 12:26:37;;;;;;;0.60;0.50;;;11.60;99.90;;;;;;6274612;22;20267;-83
2023/04/02 12:29:23;;;;;;;0.88;0.80;;;11.20;99.90;;;;;;6275830;22;20154;-81
2023/04/02 12:31:50;;;;;;;0.55;0.50;;;10.80;99.90;;;;;;6274769;22;20164;-82
2023/04/02 12:34:18;;;;;;;0.63;0.52;;;10.70;99.90;;;;;;6272993;22;20140;-83
2023/04/02 12:36:54;;;;;;;1.20;0.90;;;10.50;99.90;;;;;;6245199;22;20160;-82
2023/04/02 12:39:20;;;;;;;1.00;0.70;;;10.20;99.90;;;;;;6273728;22;20159;-82
2023/04/02 12:41:46;;;;;;;1.02;0.88;;;10.10;99.90;;;;;;6273218;22;20304;-83
2023/04/02 12:44:20;;;;;;;0.83;0.60;;;9.90;99.90;;;;;;6272657;22;20147;-82
2023/04/02 12:46:47;;;;;;;0.70;0.57;;;9.80;99.90;;;;;;6272947;22;20437;-83
2023/04/02 12:49:30;;;;;;;0.60;0.60;;;9.70;99.90;;;;;;6247274;22;20558;-82
2023/04/02 12:51:57;;;;;;;0.80;0.80;;;9.60;99.90;;;;;;6273197;22;20220;-83
2023/04/02 12:54:23;;;;;;;1.30;0.90;;;9.70;99.90;;;;;;6273822;22;20140;-82
2023/04/02 12:56:49;;;;;;;0.73;0.70;;;9.60;99.90;;;;;;6276907;22;20478;-82
2023/04/02 12:59:34;;;;;;;0.70;0.70;;;9.60;99.90;;;;;;6272540;22;20377;-82
2023/04/02 13:02:02;;;;;;;0.80;0.70;;;9.50;99.90;;;;;;6237519;23;20245;-82
2023/04/02 13:04:28;;;;;;;2.30;0.82;;;9.60;99.90;;;;;;6253127;22;20469;-83
2023/04/02 13:06:55;;;;;;;0.70;0.70;;;;;;;;;;6250323;23;20168;-83
2023/04/02 13:09:29;;;;;;;1.35;1.05;;;9.50;99.90;;;;;;6252126;22;20132;-83
2023/04/02 13:11:55;;;;;;;1.45;0.80;;;;;;;;;;6250970;23;20176;-83
2023/04/02 13:14:24;;;;;;;0.93;0.70;;;9.40;99.90;;;;;;6253665;23;20161;-83
2023/04/02 13:16:49;;;;;;;0.82;0.70;;;9.30;99.90;;;;;;6253443;22;20191;-83
2023/04/02 13:19:18;;;;;;;0.70;0.70;;;9.30;99.90;;;;;;6252804;22;20137;-83
2023/04/02 13:21:44;;;;;;;2.58;0.75;;;9.30;99.90;;;;;;6253482;23;20246;-83
2023/04/02 13:24:18;;;;;;;1.40;0.90;;;9.20;99.90;;;;;;6253119;22;20337;-84
2023/04/02 13:26:44;;;;;;;1.65;1.25;;;9.20;99.90;;;;;;6252395;22;20172;-83
2023/04/02 13:29:19;;;;;;;3.77;0.93;;;9.20;99.90;;;;;;6253379;23;20168;-84
2023/04/02 13:31:44;;;;;;;1.65;1.20;;;9.20;99.90;;;;;;6253138;22;20390;-83
2023/04/02 13:34:10;;;;;;;1.57;1.10;;;9.20;99.90;;;;;;6255257;23;20662;-83
2023/04/02 13:36:36;;;;;;;1.97;0.80;;;9.20;99.90;;;;;;6256762;23;20156;-85
2023/04/02 13:39:02;;;;;;;1.20;1.10;;;9.20;99.90;;;;;;6257086;23;20175;-84
2023/04/02 13:41:30;;;;;;;1.67;0.93;;;9.20;99.90;;;;;;6256376;22;20189;-85